Disclaimer

Please do not use the information listed here in-flight or in-navigation, as they are not provided to us by the airports but are provided by volunteers, so they might be outdated.

Search


Regions


Airport information page

Radio informations:
Tower (TWR) - 129.9 MHz

Airport informations:
Latitude: 29° 56' 24.90" N
Longitude: 034° 56' 09.06" E
Elevation: 1492 feet - 455 meters
Operating hours: Remarks
Operating agency: Military-civil joint use airport
Timezone: UTC+2(+3DT)
Fuel: Jet fuel avaiable but type is unknown.

Runway information:
02R/20L - 9843 x 148 feet< - >3000 x 45 meters
02L/20R - 8530 x 148 feet< - >2600 x 45 meters

Recent METARs:
LLOV 210950Z 03004KT 300V110 CAVOK 23/11 Q1018
LLOV 210950Z 03004KT 300V110 CAVOK 23/11 Q1018
LLOV 211050Z 02004KT 350V060 CAVOK 24/11 Q1017

Airport on the map: